sensor_id;sensor_type;location;lat;lon;timestamp;temperature;humidity
28193;DHT22;15473;50.840;3.396;2023-02-03T00:01:18;8.70;99.90
28193;DHT22;15473;50.840;3.396;2023-02-03T00:04:04;8.70;99.90
28193;DHT22;15473;50.840;3.396;2023-02-03T00:06:50;8.70;99.90
28193;DHT22;15473;50.840;3.396;2023-02-03T00:09:35;8.70;99.90
28193;DHT22;15473;50.840;3.396;2023-02-03T00:12:25;8.70;99.90
28193;DHT22;15473;50.840;3.396;2023-02-03T00:15:13;8.70;99.90
28193;DHT22;15473;50.840;3.396;2023-02-03T00:18:00;8.70;99.90
28193;DHT22;15473;50.840;3.396;2023-02-03T00:20:46;8.70;99.90
28193;DHT22;15473;50.840;3.396;2023-02-03T00:23:31;8.70;99.90
28193;DHT22;15473;50.840;3.396;2023-02-03T00:26:24;8.80;99.90
28193;DHT22;15473;50.840;3.396;2023-02-03T00:29:18;8.80;99.90
28193;DHT22;15473;50.840;3.396;2023-02-03T00:32:12;8.70;99.90
28193;DHT22;15473;50.840;3.396;2023-02-03T00:35:04;8.80;99.90
28193;DHT22;15473;50.840;3.396;2023-02-03T00:37:56;8.80;99.90
28193;DHT22;15473;50.840;3.396;2023-02-03T00:40:52;8.80;99.90
28193;DHT22;15473;50.840;3.396;2023-02-03T00:43:40;8.80;99.90
28193;DHT22;15473;50.840;3.396;2023-02-03T00:46:25;8.80;99.90
28193;DHT22;15473;50.840;3.396;2023-02-03T00:49:12;8.80;99.90
28193;DHT22;15473;50.840;3.396;2023-02-03T00:51:58;8.80;99.90
28193;DHT22;15473;50.840;3.396;2023-02-03T00:54:44;8.80;99.90
28193;DHT22;15473;50.840;3.396;2023-02-03T00:57:33;8.80;99.90
28193;DHT22;15473;50.840;3.396;2023-02-03T01:00:27;8.80;99.90
28193;DHT22;15473;50.840;3.396;2023-02-03T01:03:12;8.80;99.90
28193;DHT22;15473;50.840;3.396;2023-02-03T01:06:13;8.80;99.90
28193;DHT22;15473;50.840;3.396;2023-02-03T01:08:54;8.80;99.90
28193;DHT22;15473;50.840;3.396;2023-02-03T01:11:42;8.80;99.90
28193;DHT22;15473;50.840;3.396;2023-02-03T01:14:27;8.80;99.90
28193;DHT22;15473;50.840;3.396;2023-02-03T01:17:13;8.90;99.90
28193;DHT22;15473;50.840;3.396;2023-02-03T01:19:59;8.90;99.90
28193;DHT22;15473;50.840;3.396;2023-02-03T01:22:52;8.90;99.90
28193;DHT22;15473;50.840;3.396;2023-02-03T01:25:37;8.90;99.90
28193;DHT22;15473;50.840;3.396;2023-02-03T01:28:23;8.90;99.90
28193;DHT22;15473;50.840;3.396;2023-02-03T01:31:16;8.90;99.90
28193;DHT22;15473;50.840;3.396;2023-02-03T01:34:02;8.90;99.90
28193;DHT22;15473;50.840;3.396;2023-02-03T01:36:48;8.90;99.90
28193;DHT22;15473;50.840;3.396;2023-02-03T01:39:39;8.90;99.90
28193;DHT22;15473;50.840;3.396;2023-02-03T01:42:25;8.90;99.90
28193;DHT22;15473;50.840;3.396;2023-02-03T01:45:19;8.90;99.90
28193;DHT22;15473;50.840;3.396;2023-02-03T01:48:12;8.90;99.90
28193;DHT22;15473;50.840;3.396;2023-02-03T01:51:04;8.90;99.90
28193;DHT22;15473;50.840;3.396;2023-02-03T01:53:51;8.90;99.90
28193;DHT22;15473;50.840;3.396;2023-02-03T01:56:39;8.90;99.90
28193;DHT22;15473;50.840;3.396;2023-02-03T01:59:26;8.90;99.90
28193;DHT22;15473;50.840;3.396;2023-02-03T02:02:14;8.90;99.90
28193;DHT22;15473;50.840;3.396;2023-02-03T02:05:02;8.90;99.90
28193;DHT22;15473;50.840;3.396;2023-02-03T02:07:47;8.90;99.90
28193;DHT22;15473;50.840;3.396;2023-02-03T02:10:39;8.90;99.90
28193;DHT22;15473;50.840;3.396;2023-02-03T02:13:27;8.90;99.90
28193;DHT22;15473;50.840;3.396;2023-02-03T02:16:27;8.90;99.90
28193;DHT22;15473;50.840;3.396;2023-02-03T02:22:19;8.90;99.90
28193;DHT22;15473;50.840;3.396;2023-02-03T02:25:13;8.90;99.90
28193;DHT22;15473;50.840;3.396;2023-02-03T02:28:16;8.90;99.90
28193;DHT22;15473;50.840;3.396;2023-02-03T02:34:23;8.90;99.90
28193;DHT22;15473;50.840;3.396;2023-02-03T02:43:05;8.90;99.90
28193;DHT22;15473;50.840;3.396;2023-02-03T02:45:51;8.90;99.90
28193;DHT22;15473;50.840;3.396;2023-02-03T02:48:48;8.90;99.90
28193;DHT22;15473;50.840;3.396;2023-02-03T02:51:34;8.90;99.90
28193;DHT22;15473;50.840;3.396;2023-02-03T02:54:21;8.90;99.90
28193;DHT22;15473;50.840;3.396;2023-02-03T02:57:08;8.90;99.90
28193;DHT22;15473;50.840;3.396;2023-02-03T02:59:55;8.90;99.90
28193;DHT22;15473;50.840;3.396;2023-02-03T03:02:42;8.90;99.90
28193;DHT22;15473;50.840;3.396;2023-02-03T03:05:28;8.90;99.90
28193;DHT22;15473;50.840;3.396;2023-02-03T03:08:15;8.90;99.90
28193;DHT22;15473;50.840;3.396;2023-02-03T03:11:07;8.90;99.90
28193;DHT22;15473;50.840;3.396;2023-02-03T03:13:53;8.90;99.90
28193;DHT22;15473;50.840;3.396;2023-02-03T03:16:46;8.90;99.90
28193;DHT22;15473;50.840;3.396;2023-02-03T03:19:38;8.90;99.90
28193;DHT22;15473;50.840;3.396;2023-02-03T03:22:28;8.90;99.90
28193;DHT22;15473;50.840;3.396;2023-02-03T03:25:17;8.90;99.90
28193;DHT22;15473;50.840;3.396;2023-02-03T03:28:06;8.80;99.90
28193;DHT22;15473;50.840;3.396;2023-02-03T03:30:55;8.90;99.90
28193;DHT22;15473;50.840;3.396;2023-02-03T03:33:42;8.90;99.90
28193;DHT22;15473;50.840;3.396;2023-02-03T03:36:48;8.90;99.90
28193;DHT22;15473;50.840;3.396;2023-02-03T03:39:44;8.90;99.90
28193;DHT22;15473;50.840;3.396;2023-02-03T03:42:43;8.90;99.90
28193;DHT22;15473;50.840;3.396;2023-02-03T03:45:43;8.90;99.90
28193;DHT22;15473;50.840;3.396;2023-02-03T03:48:44;8.90;99.90
28193;DHT22;15473;50.840;3.396;2023-02-03T03:51:34;8.90;99.90
28193;DHT22;15473;50.840;3.396;2023-02-03T03:54:27;8.90;99.90
28193;DHT22;15473;50.840;3.396;2023-02-03T03:57:25;8.90;99.90
28193;DHT22;15473;50.840;3.396;2023-02-03T04:00:08;8.90;99.90
28193;DHT22;15473;50.840;3.396;2023-02-03T04:03:01;8.90;99.90
28193;DHT22;15473;50.840;3.396;2023-02-03T04:05:46;8.90;99.90
28193;DHT22;15473;50.840;3.396;2023-02-03T04:08:38;8.90;99.90
28193;DHT22;15473;50.840;3.396;2023-02-03T04:11:25;8.90;99.90
28193;DHT22;15473;50.840;3.396;2023-02-03T04:14:35;8.90;99.90
28193;DHT22;15473;50.840;3.396;2023-02-03T04:17:18;8.90;99.90
28193;DHT22;15473;50.840;3.396;2023-02-03T04:20:04;8.90;99.90
28193;DHT22;15473;50.840;3.396;2023-02-03T04:22:50;8.90;99.90
28193;DHT22;15473;50.840;3.396;2023-02-03T04:25:36;8.90;99.90
28193;DHT22;15473;50.840;3.396;2023-02-03T04:28:21;8.90;99.90
28193;DHT22;15473;50.840;3.396;2023-02-03T04:31:07;8.90;99.90
28193;DHT22;15473;50.840;3.396;2023-02-03T04:33:59;8.90;99.90
28193;DHT22;15473;50.840;3.396;2023-02-03T04:36:45;8.90;99.90
28193;DHT22;15473;50.840;3.396;2023-02-03T04:39:37;8.90;99.90
28193;DHT22;15473;50.840;3.396;2023-02-03T04:42:24;8.90;99.90
28193;DHT22;15473;50.840;3.396;2023-02-03T04:45:16;8.90;99.90
28193;DHT22;15473;50.840;3.396;2023-02-03T04:48:09;8.90;99.90
28193;DHT22;15473;50.840;3.396;2023-02-03T04:51:05;8.90;99.90
28193;DHT22;15473;50.840;3.396;2023-02-03T04:53:53;8.90;99.90
28193;DHT22;15473;50.840;3.396;2023-02-03T04:59:43;8.90;99.90
28193;DHT22;15473;50.840;3.396;2023-02-03T05:02:35;8.90;99.90
28193;DHT22;15473;50.840;3.396;2023-02-03T05:05:21;8.90;99.90
28193;DHT22;15473;50.840;3.396;2023-02-03T05:08:07;8.90;99.90
28193;DHT22;15473;50.840;3.396;2023-02-03T05:10:53;8.90;99.90
28193;DHT22;15473;50.840;3.396;2023-02-03T05:13:41;8.90;99.90
28193;DHT22;15473;50.840;3.396;2023-02-03T05:16:27;8.90;99.90
28193;DHT22;15473;50.840;3.396;2023-02-03T05:19:13;8.90;99.90
28193;DHT22;15473;50.840;3.396;2023-02-03T05:22:06;8.90;99.90
28193;DHT22;15473;50.840;3.396;2023-02-03T05:24:52;8.90;99.90
28193;DHT22;15473;50.840;3.396;2023-02-03T05:27:38;8.90;99.90
28193;DHT22;15473;50.840;3.396;2023-02-03T05:30:25;8.90;99.90
28193;DHT22;15473;50.840;3.396;2023-02-03T05:33:14;8.90;99.90
28193;DHT22;15473;50.840;3.396;2023-02-03T05:36:03;8.90;99.90
28193;DHT22;15473;50.840;3.396;2023-02-03T05:38:53;8.90;99.90
28193;DHT22;15473;50.840;3.396;2023-02-03T05:41:38;8.90;99.90
28193;DHT22;15473;50.840;3.396;2023-02-03T05:44:38;8.90;99.90
28193;DHT22;15473;50.840;3.396;2023-02-03T05:47:29;8.90;99.90
28193;DHT22;15473;50.840;3.396;2023-02-03T05:50:22;8.90;99.90
28193;DHT22;15473;50.840;3.396;2023-02-03T05:53:09;8.90;99.90
28193;DHT22;15473;50.840;3.396;2023-02-03T05:55:56;8.90;99.90
28193;DHT22;15473;50.840;3.396;2023-02-03T05:58:42;8.90;99.90
28193;DHT22;15473;50.840;3.396;2023-02-03T06:01:28;8.90;99.90
28193;DHT22;15473;50.840;3.396;2023-02-03T06:04:15;8.90;99.90
28193;DHT22;15473;50.840;3.396;2023-02-03T06:07:01;8.90;99.90
28193;DHT22;15473;50.840;3.396;2023-02-03T06:09:53;8.90;99.90
28193;DHT22;15473;50.840;3.396;2023-02-03T06:12:38;8.90;99.90
28193;DHT22;15473;50.840;3.396;2023-02-03T06:15:25;8.90;99.90
28193;DHT22;15473;50.840;3.396;2023-02-03T06:18:10;8.90;99.90
28193;DHT22;15473;50.840;3.396;2023-02-03T06:20:56;8.90;99.90
28193;DHT22;15473;50.840;3.396;2023-02-03T06:23:44;8.90;99.90
28193;DHT22;15473;50.840;3.396;2023-02-03T06:26:29;8.90;99.90
28193;DHT22;15473;50.840;3.396;2023-02-03T06:29:15;8.90;99.90
28193;DHT22;15473;50.840;3.396;2023-02-03T06:32:01;8.90;99.90
28193;DHT22;15473;50.840;3.396;2023-02-03T06:34:53;8.90;99.90
28193;DHT22;15473;50.840;3.396;2023-02-03T06:37:46;8.90;99.90
28193;DHT22;15473;50.840;3.396;2023-02-03T06:40:36;8.90;99.90
28193;DHT22;15473;50.840;3.396;2023-02-03T06:43:28;8.90;99.90
28193;DHT22;15473;50.840;3.396;2023-02-03T06:46:14;8.90;99.90
28193;DHT22;15473;50.840;3.396;2023-02-03T06:49:00;8.90;99.90
28193;DHT22;15473;50.840;3.396;2023-02-03T06:51:52;8.90;99.90
28193;DHT22;15473;50.840;3.396;2023-02-03T06:54:38;8.90;99.90
28193;DHT22;15473;50.840;3.396;2023-02-03T06:57:30;8.90;99.90
28193;DHT22;15473;50.840;3.396;2023-02-03T07:00:17;8.90;99.90
28193;DHT22;15473;50.840;3.396;2023-02-03T07:03:06;8.90;99.90
28193;DHT22;15473;50.840;3.396;2023-02-03T07:05:52;8.90;99.90
28193;DHT22;15473;50.840;3.396;2023-02-03T07:08:39;8.90;99.90
28193;DHT22;15473;50.840;3.396;2023-02-03T07:11:30;8.90;99.90
28193;DHT22;15473;50.840;3.396;2023-02-03T07:14:22;8.90;99.90
28193;DHT22;15473;50.840;3.396;2023-02-03T07:17:08;8.90;99.90
28193;DHT22;15473;50.840;3.396;2023-02-03T07:19:55;8.90;99.90
28193;DHT22;15473;50.840;3.396;2023-02-03T07:22:44;8.90;99.90
28193;DHT22;15473;50.840;3.396;2023-02-03T07:25:32;8.90;99.90
28193;DHT22;15473;50.840;3.396;2023-02-03T07:28:17;8.90;99.90
28193;DHT22;15473;50.840;3.396;2023-02-03T07:31:05;8.90;99.90
28193;DHT22;15473;50.840;3.396;2023-02-03T07:33:58;8.90;99.90
28193;DHT22;15473;50.840;3.396;2023-02-03T07:36:48;9.00;99.90
28193;DHT22;15473;50.840;3.396;2023-02-03T07:39:40;9.00;99.90
28193;DHT22;15473;50.840;3.396;2023-02-03T07:42:33;9.00;99.90
28193;DHT22;15473;50.840;3.396;2023-02-03T07:45:25;9.00;99.90
28193;DHT22;15473;50.840;3.396;2023-02-03T07:48:11;9.00;99.90
28193;DHT22;15473;50.840;3.396;2023-02-03T07:51:03;9.00;99.90
28193;DHT22;15473;50.840;3.396;2023-02-03T07:53:48;9.10;99.90
28193;DHT22;15473;50.840;3.396;2023-02-03T07:56:34;9.20;99.90
28193;DHT22;15473;50.840;3.396;2023-02-03T07:59:20;9.20;99.90
28193;DHT22;15473;50.840;3.396;2023-02-03T08:02:06;9.30;99.90
28193;DHT22;15473;50.840;3.396;2023-02-03T08:04:59;9.30;99.90
28193;DHT22;15473;50.840;3.396;2023-02-03T08:07:47;9.40;99.90
28193;DHT22;15473;50.840;3.396;2023-02-03T08:10:33;9.40;99.90
28193;DHT22;15473;50.840;3.396;2023-02-03T08:13:25;9.50;99.90
28193;DHT22;15473;50.840;3.396;2023-02-03T08:16:17;9.60;99.90
28193;DHT22;15473;50.840;3.396;2023-02-03T08:19:02;9.60;99.90
28193;DHT22;15473;50.840;3.396;2023-02-03T08:21:52;9.70;99.90
28193;DHT22;15473;50.840;3.396;2023-02-03T08:24:46;9.70;99.90
28193;DHT22;15473;50.840;3.396;2023-02-03T08:27:32;9.70;99.90
28193;DHT22;15473;50.840;3.396;2023-02-03T08:30:24;9.80;99.90
28193;DHT22;15473;50.840;3.396;2023-02-03T08:33:12;9.90;99.90
28193;DHT22;15473;50.840;3.396;2023-02-03T08:35:57;10.00;99.90
28193;DHT22;15473;50.840;3.396;2023-02-03T08:38:44;10.10;99.90
28193;DHT22;15473;50.840;3.396;2023-02-03T08:41:36;10.20;99.90
28193;DHT22;15473;50.840;3.396;2023-02-03T08:44:28;10.30;99.90
28193;DHT22;15473;50.840;3.396;2023-02-03T08:47:21;10.40;99.90
28193;DHT22;15473;50.840;3.396;2023-02-03T08:50:08;10.50;99.90
28193;DHT22;15473;50.840;3.396;2023-02-03T08:52:55;10.60;99.90
28193;DHT22;15473;50.840;3.396;2023-02-03T08:55:47;10.70;99.90
28193;DHT22;15473;50.840;3.396;2023-02-03T08:58:33;10.70;99.90
28193;DHT22;15473;50.840;3.396;2023-02-03T09:01:19;10.80;99.90
28193;DHT22;15473;50.840;3.396;2023-02-03T09:04:16;10.80;99.90
28193;DHT22;15473;50.840;3.396;2023-02-03T09:07:10;10.80;99.90
28193;DHT22;15473;50.840;3.396;2023-02-03T09:09:56;10.80;99.90
28193;DHT22;15473;50.840;3.396;2023-02-03T09:12:48;10.80;99.90
28193;DHT22;15473;50.840;3.396;2023-02-03T09:15:40;10.80;99.90
28193;DHT22;15473;50.840;3.396;2023-02-03T09:18:26;10.80;99.90
28193;DHT22;15473;50.840;3.396;2023-02-03T09:21:12;10.90;99.90
28193;DHT22;15473;50.840;3.396;2023-02-03T09:24:00;10.90;99.90
28193;DHT22;15473;50.840;3.396;2023-02-03T09:26:57;10.90;99.90
28193;DHT22;15473;50.840;3.396;2023-02-03T09:29:46;11.10;99.90
28193;DHT22;15473;50.840;3.396;2023-02-03T09:32:33;11.10;99.90
28193;DHT22;15473;50.840;3.396;2023-02-03T09:35:19;11.20;99.90
28193;DHT22;15473;50.840;3.396;2023-02-03T09:38:05;11.30;99.90
28193;DHT22;15473;50.840;3.396;2023-02-03T09:41:01;11.40;99.90
28193;DHT22;15473;50.840;3.396;2023-02-03T09:44:51;11.70;99.90
28193;DHT22;15473;50.840;3.396;2023-02-03T09:46:53;12.20;99.90
28193;DHT22;15473;50.840;3.396;2023-02-03T09:49:42;12.50;99.90
28193;DHT22;15473;50.840;3.396;2023-02-03T09:52:34;12.70;99.90
28193;DHT22;15473;50.840;3.396;2023-02-03T09:55:35;12.80;99.90
28193;DHT22;15473;50.840;3.396;2023-02-03T09:58:20;12.80;99.90
28193;DHT22;15473;50.840;3.396;2023-02-03T10:01:07;12.80;99.90
28193;DHT22;15473;50.840;3.396;2023-02-03T10:04:00;12.80;99.90
28193;DHT22;15473;50.840;3.396;2023-02-03T10:06:42;12.90;99.90
28193;DHT22;15473;50.840;3.396;2023-02-03T10:09:55;13.00;99.90
28193;DHT22;15473;50.840;3.396;2023-02-03T10:12:41;13.10;99.90
28193;DHT22;15473;50.840;3.396;2023-02-03T10:15:40;13.10;99.90
28193;DHT22;15473;50.840;3.396;2023-02-03T10:18:28;12.90;99.90
28193;DHT22;15473;50.840;3.396;2023-02-03T10:21:36;12.80;99.90
28193;DHT22;15473;50.840;3.396;2023-02-03T10:27:33;12.80;99.90
28193;DHT22;15473;50.840;3.396;2023-02-03T10:30:38;13.00;99.90
28193;DHT22;15473;50.840;3.396;2023-02-03T10:33:13;13.10;99.90
28193;DHT22;15473;50.840;3.396;2023-02-03T10:42:08;13.70;99.90
28193;DHT22;15473;50.840;3.396;2023-02-03T10:44:56;13.80;99.90
28193;DHT22;15473;50.840;3.396;2023-02-03T10:47:50;13.90;99.90
28193;DHT22;15473;50.840;3.396;2023-02-03T10:50:36;14.00;99.90
28193;DHT22;15473;50.840;3.396;2023-02-03T10:53:31;14.10;99.90
28193;DHT22;15473;50.840;3.396;2023-02-03T10:56:13;14.30;99.90
28193;DHT22;15473;50.840;3.396;2023-02-03T10:59:02;14.30;99.90
28193;DHT22;15473;50.840;3.396;2023-02-03T11:01:48;14.40;99.90
28193;DHT22;15473;50.840;3.396;2023-02-03T11:04:40;14.20;99.90
28193;DHT22;15473;50.840;3.396;2023-02-03T11:07:26;14.20;99.90
28193;DHT22;15473;50.840;3.396;2023-02-03T11:10:25;14.10;99.90
28193;DHT22;15473;50.840;3.396;2023-02-03T11:13:12;14.20;99.90
28193;DHT22;15473;50.840;3.396;2023-02-03T11:16:02;14.20;99.90
28193;DHT22;15473;50.840;3.396;2023-02-03T11:21:41;15.10;99.90
28193;DHT22;15473;50.840;3.396;2023-02-03T11:24:38;15.10;99.90
28193;DHT22;15473;50.840;3.396;2023-02-03T11:27:31;15.10;99.90
28193;DHT22;15473;50.840;3.396;2023-02-03T11:30:19;14.90;99.90
28193;DHT22;15473;50.840;3.396;2023-02-03T11:33:14;14.70;99.90
28193;DHT22;15473;50.840;3.396;2023-02-03T11:35:57;14.50;99.90
28193;DHT22;15473;50.840;3.396;2023-02-03T11:38:45;14.30;99.90
28193;DHT22;15473;50.840;3.396;2023-02-03T11:41:31;14.20;99.90
28193;DHT22;15473;50.840;3.396;2023-02-03T11:44:19;14.10;99.90
28193;DHT22;15473;50.840;3.396;2023-02-03T11:47:08;14.10;99.90
28193;DHT22;15473;50.840;3.396;2023-02-03T11:50:04;14.00;99.90
28193;DHT22;15473;50.840;3.396;2023-02-03T12:08:00;14.30;99.90
28193;DHT22;15473;50.840;3.396;2023-02-03T12:19:41;14.50;99.90
28193;DHT22;15473;50.840;3.396;2023-02-03T12:22:56;14.50;99.90
28193;DHT22;15473;50.840;3.396;2023-02-03T12:25:58;14.50;99.90
28193;DHT22;15473;50.840;3.396;2023-02-03T12:28:53;14.70;99.90
28193;DHT22;15473;50.840;3.396;2023-02-03T12:31:45;14.60;99.90
28193;DHT22;15473;50.840;3.396;2023-02-03T12:34:41;14.60;99.90
28193;DHT22;15473;50.840;3.396;2023-02-03T12:40:34;14.70;99.90
28193;DHT22;15473;50.840;3.396;2023-02-03T12:43:43;14.70;99.90
28193;DHT22;15473;50.840;3.396;2023-02-03T12:52:17;14.60;99.90
28193;DHT22;15473;50.840;3.396;2023-02-03T12:55:05;14.70;99.90
28193;DHT22;15473;50.840;3.396;2023-02-03T12:57:50;14.60;99.90
28193;DHT22;15473;50.840;3.396;2023-02-03T13:00:45;14.50;99.90
28193;DHT22;15473;50.840;3.396;2023-02-03T13:09:38;14.10;99.90
28193;DHT22;15473;50.840;3.396;2023-02-03T13:12:38;14.20;99.90
28193;DHT22;15473;50.840;3.396;2023-02-03T13:18:25;14.30;99.90
28193;DHT22;15473;50.840;3.396;2023-02-03T13:21:12;14.20;99.90
28193;DHT22;15473;50.840;3.396;2023-02-03T13:24:01;14.30;99.90
28193;DHT22;15473;50.840;3.396;2023-02-03T13:26:56;14.30;99.90
28193;DHT22;15473;50.840;3.396;2023-02-03T13:32:55;14.50;99.90
28193;DHT22;15473;50.840;3.396;2023-02-03T13:38:33;14.40;99.90
28193;DHT22;15473;50.840;3.396;2023-02-03T13:41:41;14.30;99.90
28193;DHT22;15473;50.840;3.396;2023-02-03T13:44:29;14.20;99.90
28193;DHT22;15473;50.840;3.396;2023-02-03T13:47:35;14.00;99.90
28193;DHT22;15473;50.840;3.396;2023-02-03T13:50:23;14.00;99.90
28193;DHT22;15473;50.840;3.396;2023-02-03T13:53:18;13.90;99.90
28193;DHT22;15473;50.840;3.396;2023-02-03T13:56:14;13.90;99.90
28193;DHT22;15473;50.840;3.396;2023-02-03T13:58:58;13.80;99.90
28193;DHT22;15473;50.840;3.396;2023-02-03T14:01:46;13.80;99.90
28193;DHT22;15473;50.840;3.396;2023-02-03T14:07:32;13.70;99.90
28193;DHT22;15473;50.840;3.396;2023-02-03T14:10:21;13.60;99.90
28193;DHT22;15473;50.840;3.396;2023-02-03T14:13:18;13.50;99.90
28193;DHT22;15473;50.840;3.396;2023-02-03T14:19:08;13.30;99.90
28193;DHT22;15473;50.840;3.396;2023-02-03T14:24:49;13.20;99.90
28193;DHT22;15473;50.840;3.396;2023-02-03T14:27:38;13.10;99.90
28193;DHT22;15473;50.840;3.396;2023-02-03T14:30:24;13.00;99.90
28193;DHT22;15473;50.840;3.396;2023-02-03T14:33:09;13.00;99.90
28193;DHT22;15473;50.840;3.396;2023-02-03T14:35:55;13.10;99.90
28193;DHT22;15473;50.840;3.396;2023-02-03T14:38:47;13.10;99.90
28193;DHT22;15473;50.840;3.396;2023-02-03T14:41:49;13.10;99.90
28193;DHT22;15473;50.840;3.396;2023-02-03T14:47:45;13.10;99.90
28193;DHT22;15473;50.840;3.396;2023-02-03T14:56:30;13.20;99.90
28193;DHT22;15473;50.840;3.396;2023-02-03T14:59:12;13.20;99.90
28193;DHT22;15473;50.840;3.396;2023-02-03T15:04:51;13.20;99.90
28193;DHT22;15473;50.840;3.396;2023-02-03T15:07:44;13.20;99.90
28193;DHT22;15473;50.840;3.396;2023-02-03T15:13:29;13.00;99.90
28193;DHT22;15473;50.840;3.396;2023-02-03T15:16:17;12.90;99.90
28193;DHT22;15473;50.840;3.396;2023-02-03T15:19:13;12.80;99.90
28193;DHT22;15473;50.840;3.396;2023-02-03T15:21:53;12.70;99.90
28193;DHT22;15473;50.840;3.396;2023-02-03T15:24:40;12.70;99.90
28193;DHT22;15473;50.840;3.396;2023-02-03T15:27:32;12.50;99.90
28193;DHT22;15473;50.840;3.396;2023-02-03T15:30:25;12.50;99.90
28193;DHT22;15473;50.840;3.396;2023-02-03T15:33:17;12.40;99.90
28193;DHT22;15473;50.840;3.396;2023-02-03T15:36:13;12.30;99.90
28193;DHT22;15473;50.840;3.396;2023-02-03T15:39:08;12.30;99.90
28193;DHT22;15473;50.840;3.396;2023-02-03T15:41:53;12.20;99.90
28193;DHT22;15473;50.840;3.396;2023-02-03T15:44:45;12.20;99.90
28193;DHT22;15473;50.840;3.396;2023-02-03T15:53:20;12.00;99.90
28193;DHT22;15473;50.840;3.396;2023-02-03T15:56:26;12.00;99.90
28193;DHT22;15473;50.840;3.396;2023-02-03T15:58:59;11.90;99.90
28193;DHT22;15473;50.840;3.396;2023-02-03T16:01:51;11.90;99.90
28193;DHT22;15473;50.840;3.396;2023-02-03T16:04:39;11.80;99.90
28193;DHT22;15473;50.840;3.396;2023-02-03T16:07:31;11.80;99.90
28193;DHT22;15473;50.840;3.396;2023-02-03T16:10:27;11.70;99.90
28193;DHT22;15473;50.840;3.396;2023-02-03T16:13:17;11.70;99.90
28193;DHT22;15473;50.840;3.396;2023-02-03T16:16:06;11.60;99.90
28193;DHT22;15473;50.840;3.396;2023-02-03T16:18:57;11.60;99.90
28193;DHT22;15473;50.840;3.396;2023-02-03T16:24:38;11.50;99.90
28193;DHT22;15473;50.840;3.396;2023-02-03T16:30:18;11.40;99.90
28193;DHT22;15473;50.840;3.396;2023-02-03T16:33:19;11.30;99.90
28193;DHT22;15473;50.840;3.396;2023-02-03T16:36:23;11.20;99.90
28193;DHT22;15473;50.840;3.396;2023-02-03T16:39:32;11.20;99.90
28193;DHT22;15473;50.840;3.396;2023-02-03T16:42:39;11.10;99.90
28193;DHT22;15473;50.840;3.396;2023-02-03T16:45:44;11.00;99.90
28193;DHT22;15473;50.840;3.396;2023-02-03T16:48:47;11.00;99.90
28193;DHT22;15473;50.840;3.396;2023-02-03T16:51:51;10.90;99.90
28193;DHT22;15473;50.840;3.396;2023-02-03T16:54:43;10.90;99.90
28193;DHT22;15473;50.840;3.396;2023-02-03T16:57:29;10.80;99.90
28193;DHT22;15473;50.840;3.396;2023-02-03T17:00:14;10.80;99.90
28193;DHT22;15473;50.840;3.396;2023-02-03T17:03:03;10.70;99.90
28193;DHT22;15473;50.840;3.396;2023-02-03T17:05:49;10.60;99.90
28193;DHT22;15473;50.840;3.396;2023-02-03T17:08:36;10.50;99.90
28193;DHT22;15473;50.840;3.396;2023-02-03T17:11:29;10.40;99.90
28193;DHT22;15473;50.840;3.396;2023-02-03T17:14:21;10.20;99.90
28193;DHT22;15473;50.840;3.396;2023-02-03T17:17:06;10.10;99.90
28193;DHT22;15473;50.840;3.396;2023-02-03T17:19:52;10.00;99.90
28193;DHT22;15473;50.840;3.396;2023-02-03T17:22:38;9.90;99.90
28193;DHT22;15473;50.840;3.396;2023-02-03T17:25:31;9.80;99.90
28193;DHT22;15473;50.840;3.396;2023-02-03T17:28:18;9.70;99.90
28193;DHT22;15473;50.840;3.396;2023-02-03T17:31:06;9.60;99.90
28193;DHT22;15473;50.840;3.396;2023-02-03T17:33:59;9.50;99.90
28193;DHT22;15473;50.840;3.396;2023-02-03T17:36:45;9.50;99.90
28193;DHT22;15473;50.840;3.396;2023-02-03T17:39:31;9.50;99.90
28193;DHT22;15473;50.840;3.396;2023-02-03T17:42:24;9.50;99.90
28193;DHT22;15473;50.840;3.396;2023-02-03T17:45:13;9.50;99.90
28193;DHT22;15473;50.840;3.396;2023-02-03T17:47:58;9.50;99.90
28193;DHT22;15473;50.840;3.396;2023-02-03T17:50:46;9.50;99.90
28193;DHT22;15473;50.840;3.396;2023-02-03T17:53:38;9.40;99.90
28193;DHT22;15473;50.840;3.396;2023-02-03T17:56:28;9.40;99.90
28193;DHT22;15473;50.840;3.396;2023-02-03T17:59:16;9.50;99.90
28193;DHT22;15473;50.840;3.396;2023-02-03T18:02:08;9.40;99.90
28193;DHT22;15473;50.840;3.396;2023-02-03T18:05:00;9.40;99.90
28193;DHT22;15473;50.840;3.396;2023-02-03T18:07:53;9.40;99.90
28193;DHT22;15473;50.840;3.396;2023-02-03T18:10:43;9.40;99.90
28193;DHT22;15473;50.840;3.396;2023-02-03T18:13:40;9.40;99.90
28193;DHT22;15473;50.840;3.396;2023-02-03T18:16:36;9.40;99.90
28193;DHT22;15473;50.840;3.396;2023-02-03T18:19:22;9.40;99.90
28193;DHT22;15473;50.840;3.396;2023-02-03T18:22:08;9.40;99.90
28193;DHT22;15473;50.840;3.396;2023-02-03T18:24:53;9.40;99.90
28193;DHT22;15473;50.840;3.396;2023-02-03T18:27:39;9.40;99.90
28193;DHT22;15473;50.840;3.396;2023-02-03T18:30:31;9.40;99.90
28193;DHT22;15473;50.840;3.396;2023-02-03T18:33:18;9.40;99.90
28193;DHT22;15473;50.840;3.396;2023-02-03T18:36:10;9.40;99.90
28193;DHT22;15473;50.840;3.396;2023-02-03T18:39:00;9.40;99.90
28193;DHT22;15473;50.840;3.396;2023-02-03T18:41:52;9.40;99.90
28193;DHT22;15473;50.840;3.396;2023-02-03T18:44:44;9.40;99.90
28193;DHT22;15473;50.840;3.396;2023-02-03T18:47:29;9.40;99.90
28193;DHT22;15473;50.840;3.396;2023-02-03T18:50:15;9.40;99.90
28193;DHT22;15473;50.840;3.396;2023-02-03T18:53:01;9.40;99.90
28193;DHT22;15473;50.840;3.396;2023-02-03T18:55:47;9.40;99.90
28193;DHT22;15473;50.840;3.396;2023-02-03T18:58:32;9.40;99.90
28193;DHT22;15473;50.840;3.396;2023-02-03T19:01:26;9.40;99.90
28193;DHT22;15473;50.840;3.396;2023-02-03T19:04:12;9.40;99.90
28193;DHT22;15473;50.840;3.396;2023-02-03T19:07:02;9.40;99.90
28193;DHT22;15473;50.840;3.396;2023-02-03T19:09:48;9.40;99.90
28193;DHT22;15473;50.840;3.396;2023-02-03T19:12:35;9.40;99.90
28193;DHT22;15473;50.840;3.396;2023-02-03T19:15:21;9.40;99.90
28193;DHT22;15473;50.840;3.396;2023-02-03T19:18:07;9.40;99.90
28193;DHT22;15473;50.840;3.396;2023-02-03T19:20:52;9.40;99.90
28193;DHT22;15473;50.840;3.396;2023-02-03T19:23:38;9.40;99.90
28193;DHT22;15473;50.840;3.396;2023-02-03T19:26:25;9.40;99.90
28193;DHT22;15473;50.840;3.396;2023-02-03T19:29:18;9.40;99.90
28193;DHT22;15473;50.840;3.396;2023-02-03T19:32:03;9.40;99.90
28193;DHT22;15473;50.840;3.396;2023-02-03T19:34:50;9.40;99.90
28193;DHT22;15473;50.840;3.396;2023-02-03T19:37:36;9.30;99.90
28193;DHT22;15473;50.840;3.396;2023-02-03T19:40:29;9.40;99.90
28193;DHT22;15473;50.840;3.396;2023-02-03T19:43:18;9.40;99.90
28193;DHT22;15473;50.840;3.396;2023-02-03T19:46:08;9.40;99.90
28193;DHT22;15473;50.840;3.396;2023-02-03T19:48:54;9.40;99.90
28193;DHT22;15473;50.840;3.396;2023-02-03T19:51:40;9.30;99.90
28193;DHT22;15473;50.840;3.396;2023-02-03T19:54:26;9.40;99.90